createdAt,value
2022-11-13T09:43:42.529Z,65.77
2022-11-13T09:46:21.097Z,65.89
2022-11-13T09:48:53.725Z,65.52
2022-11-13T09:51:26.144Z,65.83
2022-11-13T09:53:54.322Z,65.04
2022-11-13T09:56:30.186Z,65.44
2022-11-13T09:59:22.454Z,64.45
2022-11-13T10:01:58.632Z,63.79
2022-11-13T10:04:42.423Z,63.73
2022-11-13T10:07:25.186Z,63.31
2022-11-13T10:10:06.202Z,63.25
2022-11-13T10:12:35.664Z,62.65
2022-11-13T10:15:07.269Z,62.72
2022-11-13T10:17:39.411Z,61.86
2022-11-13T10:20:15.301Z,61.48
2022-11-13T10:22:51.487Z,61.46
2022-11-13T10:25:21.369Z,60.93
2022-11-13T10:27:55.154Z,60.17
2022-11-13T10:30:24.582Z,60.16
2022-11-13T10:32:52.674Z,59.93
2022-11-13T10:35:46.053Z,60.54
2022-11-13T10:38:22.441Z,59.72
2022-11-13T10:40:50.908Z,59.72
2022-11-13T10:43:23.440Z,58.75
2022-11-13T10:46:00.968Z,59.37
2022-11-13T10:48:32.018Z,59.05
2022-11-13T10:51:03.015Z,59.15
2022-11-13T10:53:40.275Z,58.78
2022-11-13T10:56:25.270Z,58.19
2022-11-13T10:59:11.121Z,58.44
2022-11-13T11:01:44.283Z,59.71
2022-11-13T11:04:15.416Z,58.00
2022-11-13T11:09:33.803Z,58.12
2022-11-13T11:12:24.319Z,58.03
2022-11-13T11:15:17.191Z,57.94
2022-11-13T11:17:50.586Z,57.64
2022-11-13T11:20:25.767Z,57.51
2022-11-13T11:22:59.943Z,57.37
2022-11-13T11:25:36.845Z,56.66
2022-11-13T11:28:10.748Z,56.67
2022-11-13T11:30:48.744Z,56.60
2022-11-13T11:33:24.029Z,56.35
2022-11-13T11:36:00.524Z,56.66
2022-11-13T11:38:34.067Z,56.06
2022-11-13T11:41:15.008Z,56.43
2022-11-13T11:43:46.165Z,56.56
2022-11-13T11:46:15.612Z,55.94
2022-11-13T11:48:44.861Z,55.50
2022-11-13T11:51:22.518Z,55.66
2022-11-13T11:53:59.464Z,55.69
2022-11-13T11:56:33.017Z,55.26
2022-11-13T11:59:13.418Z,55.72
2022-11-13T12:01:57.354Z,55.17
2022-11-13T12:04:43.191Z,55.82
2022-11-13T12:07:18.667Z,56.78
2022-11-13T12:09:56.700Z,56.19
2022-11-13T12:12:46.089Z,55.70
2022-11-13T12:15:23.370Z,55.63
2022-11-13T12:18:00.603Z,55.62
2022-11-13T12:20:38.032Z,55.83
2022-11-13T12:23:21.152Z,55.19
2022-11-13T12:25:52.818Z,54.76
2022-11-13T12:28:25.083Z,54.01
2022-11-13T12:31:04.562Z,53.93
2022-11-13T12:33:44.893Z,53.45
2022-11-13T12:36:16.201Z,53.59
2022-11-13T12:38:52.813Z,53.33
2022-11-13T12:41:31.869Z,53.63
2022-11-13T12:44:16.944Z,53.55
2022-11-13T12:46:45.577Z,53.42
2022-11-13T12:49:28.180Z,54.00
2022-11-13T12:51:59.676Z,53.17
2022-11-13T12:54:32.821Z,53.81
2022-11-13T12:57:09.093Z,53.14
2022-11-13T12:59:40.861Z,52.68
2022-11-13T13:02:26.441Z,53.40
2022-11-13T13:05:08.404Z,53.25
2022-11-13T13:07:56.328Z,53.13
2022-11-13T13:10:30.664Z,53.10
2022-11-13T13:13:05.319Z,52.88
2022-11-13T13:15:37.572Z,52.33
2022-11-13T13:18:09.910Z,52.53
2022-11-13T13:20:40.403Z,52.41
2022-11-13T13:23:13.450Z,52.53
2022-11-13T13:25:42.638Z,52.19
2022-11-13T13:28:24.136Z,52.82
2022-11-13T13:30:59.177Z,51.38
2022-11-13T13:33:33.616Z,51.48
2022-11-13T13:36:12.672Z,51.72
2022-11-13T13:38:52.419Z,51.56
2022-11-13T13:41:33.190Z,51.21
2022-11-13T13:44:24.191Z,51.36
2022-11-13T13:46:52.731Z,50.86
2022-11-13T13:49:23.725Z,49.79
2022-11-13T13:51:54.107Z,50.48
2022-11-13T13:54:26.220Z,50.00
2022-11-13T13:56:55.455Z,49.91
2022-11-13T13:59:33.379Z,50.51
2022-11-13T14:02:03.480Z,49.93
2022-11-13T14:04:36.163Z,49.86
2022-11-13T14:07:04.803Z,50.01
2022-11-13T14:09:35.433Z,50.12
2022-11-13T14:12:09.590Z,49.91
2022-11-13T14:14:40.606Z,49.90
2022-11-13T14:17:11.579Z,49.69
2022-11-13T14:19:39.973Z,50.04
2022-11-13T14:22:13.891Z,50.10
2022-11-13T14:24:48.693Z,51.01
2022-11-13T14:27:20.958Z,50.55
2022-11-13T14:29:51.140Z,50.99
2022-11-13T14:32:22.556Z,50.70
2022-11-13T14:34:53.015Z,50.72
2022-11-13T14:37:28.782Z,51.06
2022-11-13T14:40:00.674Z,50.46
2022-11-13T14:42:37.147Z,50.69
2022-11-13T14:45:16.444Z,51.45
2022-11-13T14:47:45.382Z,50.74
2022-11-13T14:50:24.836Z,51.14
2022-11-13T14:53:01.746Z,51.92
2022-11-13T14:55:33.538Z,52.42
2022-11-13T14:58:01.327Z,52.79
2022-11-13T15:00:34.340Z,53.30
2022-11-13T15:03:04.366Z,53.58
2022-11-13T15:05:33.445Z,53.96
2022-11-13T15:08:01.692Z,54.32
2022-11-13T15:10:32.835Z,54.43
2022-11-13T15:13:00.707Z,54.77
2022-11-13T15:15:30.936Z,54.99
2022-11-13T15:17:59.300Z,55.30
2022-11-13T15:20:29.219Z,55.30
2022-11-13T15:22:59.722Z,55.11
2022-11-13T15:25:28.358Z,55.14
2022-11-13T15:27:57.655Z,55.79
2022-11-13T15:30:25.919Z,55.70
2022-11-13T15:32:54.827Z,56.00
2022-11-13T15:35:23.322Z,56.06
2022-11-13T15:37:51.382Z,56.27
2022-11-13T15:40:19.380Z,56.09
2022-11-13T15:42:47.582Z,56.15
2022-11-13T15:45:17.928Z,56.54
2022-11-13T15:47:45.808Z,56.51
2022-11-13T15:50:15.878Z,56.53
2022-11-13T15:52:47.043Z,56.88
2022-11-13T15:55:22.490Z,56.97
2022-11-13T15:57:50.282Z,56.15
2022-11-13T16:00:25.487Z,57.49
2022-11-13T16:02:55.746Z,57.57
2022-11-13T16:05:25.944Z,57.64
2022-11-13T16:07:54.405Z,57.34
2022-11-13T16:10:26.359Z,57.50
2022-11-13T16:12:57.092Z,57.61
2022-11-13T16:15:26.665Z,57.27
2022-11-13T16:17:57.643Z,57.45
2022-11-13T16:20:28.925Z,57.51
2022-11-13T16:22:57.346Z,57.69
2022-11-13T16:25:25.410Z,57.67
2022-11-13T16:28:11.964Z,57.14
2022-11-13T16:30:44.902Z,57.28
2022-11-13T16:33:17.243Z,57.77
2022-11-13T16:36:23.719Z,57.62
2022-11-13T16:39:00.882Z,57.21
2022-11-13T16:41:39.613Z,57.80
2022-11-13T16:47:36.523Z,57.75
2022-11-13T16:53:20.571Z,57.32
2022-11-13T16:59:24.194Z,57.57
2022-11-13T17:05:14.544Z,57.72
2022-11-13T17:07:43.192Z,57.85
2022-11-13T17:48:52.764Z,58.57
2022-11-13T18:18:57.454Z,58.06
2022-11-13T18:21:29.039Z,58.31
2022-11-13T18:23:58.622Z,58.81
2022-11-13T18:26:28.396Z,58.60
2022-11-13T18:28:56.855Z,58.23
2022-11-13T18:31:25.215Z,58.39
2022-11-13T18:33:53.624Z,58.33
2022-11-13T18:36:23.178Z,58.55
2022-11-13T18:38:51.402Z,58.26
2022-11-13T18:41:21.803Z,58.19
2022-11-13T18:43:51.876Z,57.90
2022-11-13T18:46:24.028Z,58.50
2022-11-13T18:48:52.827Z,58.50
2022-11-13T18:51:24.803Z,58.57
2022-11-13T18:54:04.326Z,58.55
2022-11-13T18:56:54.059Z,58.22
2022-11-13T18:59:26.424Z,58.15
2022-11-13T19:02:07.944Z,57.61
2022-11-13T19:04:37.984Z,58.25
2022-11-13T19:07:08.903Z,57.83
2022-11-13T19:09:36.997Z,58.69
2022-11-13T19:12:10.056Z,58.45
2022-11-13T19:14:53.948Z,58.35
2022-11-13T19:17:23.005Z,57.87
2022-11-13T19:19:51.776Z,58.30
2022-11-13T19:22:23.583Z,57.99
2022-11-13T19:24:54.854Z,58.49
2022-11-13T19:27:23.881Z,58.37
2022-11-13T19:29:56.085Z,58.68
2022-11-13T19:32:26.612Z,58.58
2022-11-13T19:34:56.740Z,58.57
2022-11-13T19:37:27.399Z,58.40
